Open Full Screen Window  High Contrast Mode
Wind Gusting 00 knots
06
August 16, 2017 5:27 PM EDT
Weather Information
Wind Direction
  230 °
Wind Speed
  06 kt (7 mph)
Wind Gust
  00 kt (0 mph)
Altimeter
29.98 in
Visibility
10 SM
Temperature
32° C
90° F
Dewpoint
19° C
66° F
Humidity
46%
1hr Rain Fall
00.00 in.
24hr Rain Fall
00.00 in.
Sky Condition
Broken @ 4,500 ft
VFR

METAR KI69 162127Z AUTO 23006KT 10SM BKN045 32/19 A2998 RMK AO2 T03200190

*Background is not an actual portrayal of the airport.